createdAt,value
2019-01-27T00:01:07.794Z,96778.95
2019-01-27T00:03:36.439Z,96774.14
2019-01-27T00:06:05.082Z,96776.27
2019-01-27T00:08:34.422Z,96763.66
2019-01-27T00:11:03.444Z,96762.80
2019-01-27T00:13:32.134Z,96764.21
2019-01-27T00:16:00.787Z,96752.95
2019-01-27T00:18:29.529Z,96750.88
2019-01-27T00:20:58.224Z,96734.64
2019-01-27T00:23:26.919Z,96739.63
2019-01-27T00:25:55.551Z,96727.16
2019-01-27T00:28:24.186Z,96721.38
2019-01-27T00:30:52.913Z,96721.76
2019-01-27T00:33:21.626Z,96714.58
2019-01-27T00:35:50.271Z,96704.79
2019-01-27T00:38:18.931Z,96704.72
2019-01-27T00:40:47.627Z,96707.02
2019-01-27T00:43:16.270Z,96700.02
2019-01-27T00:45:45.339Z,96687.59
2019-01-27T00:48:13.973Z,96691.05
2019-01-27T00:50:42.952Z,96681.44
2019-01-27T00:53:11.586Z,96684.19
2019-01-27T00:55:41.202Z,96692.53
2019-01-27T00:58:09.847Z,96672.82
2019-01-27T01:00:38.700Z,96676.67
2019-01-27T01:03:07.678Z,96662.59
2019-01-27T01:05:36.820Z,96656.13
2019-01-27T01:08:06.424Z,96657.41
2019-01-27T01:10:35.054Z,96671.31
2019-01-27T01:13:03.974Z,96665.27
2019-01-27T01:15:32.705Z,96672.66
2019-01-27T01:18:01.354Z,96650.44
2019-01-27T01:20:29.989Z,96661.08
2019-01-27T01:22:58.671Z,96654.94
2019-01-27T01:25:27.687Z,96659.67
2019-01-27T01:27:56.325Z,96658.16
2019-01-27T01:30:26.028Z,96663.28
2019-01-27T01:32:54.747Z,96657.55
2019-01-27T01:35:23.458Z,96648.80
2019-01-27T01:37:52.182Z,96660.77
2019-01-27T01:40:20.849Z,96648.83
2019-01-27T01:42:49.484Z,96637.09
2019-01-27T01:45:19.373Z,96642.68
2019-01-27T01:47:48.091Z,96626.88
2019-01-27T01:50:16.931Z,96623.45
2019-01-27T01:52:45.988Z,96605.98
2019-01-27T01:55:14.978Z,96606.05
2019-01-27T01:57:43.658Z,96604.23
2019-01-27T02:00:14.142Z,96602.41
2019-01-27T02:02:42.945Z,96593.35
2019-01-27T02:05:11.718Z,96598.94
2019-01-27T02:07:40.358Z,96601.00
2019-01-27T02:10:10.110Z,96598.80
2019-01-27T02:12:38.742Z,96591.99
2019-01-27T02:15:12.262Z,96583.96
2019-01-27T02:17:40.894Z,96583.34
2019-01-27T02:20:09.568Z,96580.44
2019-01-27T02:22:38.223Z,96570.11
2019-01-27T02:25:06.876Z,96555.30
2019-01-27T02:27:35.787Z,96543.02
2019-01-27T02:30:05.032Z,96546.25
2019-01-27T02:32:34.811Z,96539.17
2019-01-27T02:35:03.527Z,96540.27
2019-01-27T02:37:32.187Z,96527.59
2019-01-27T02:40:01.507Z,96521.12
2019-01-27T02:42:30.519Z,96529.48
2019-01-27T02:44:59.167Z,96524.59
2019-01-27T02:47:27.799Z,96518.37
2019-01-27T02:49:56.453Z,96514.03
2019-01-27T02:52:25.143Z,96515.69
2019-01-27T02:54:53.775Z,96502.72
2019-01-27T02:57:22.405Z,96496.58
2019-01-27T02:59:52.792Z,96493.50
2019-01-27T03:02:21.794Z,96484.12
2019-01-27T03:04:50.430Z,96480.23
2019-01-27T03:07:35.927Z,96473.61
2019-01-27T03:10:06.528Z,96462.81
2019-01-27T03:12:35.194Z,96457.70
2019-01-27T03:15:04.373Z,96459.27
2019-01-27T03:17:33.028Z,96456.67
2019-01-27T03:20:01.676Z,96451.78
2019-01-27T03:22:30.385Z,96440.99
2019-01-27T03:24:59.030Z,96441.51
2019-01-27T03:27:27.663Z,96428.67
2019-01-27T03:29:56.307Z,96424.09
2019-01-27T03:32:24.966Z,96421.49
2019-01-27T03:34:53.904Z,96406.30
2019-01-27T03:37:22.543Z,96402.64
2019-01-27T03:39:51.293Z,96397.29
2019-01-27T03:42:20.189Z,96389.26
2019-01-27T03:44:49.465Z,96384.57
2019-01-27T03:47:18.119Z,96384.50
2019-01-27T03:49:47.101Z,96383.08
2019-01-27T03:52:15.743Z,96378.83
2019-01-27T03:54:44.379Z,96375.28
2019-01-27T03:57:13.108Z,96372.53
2019-01-27T03:59:41.774Z,96368.44
2019-01-27T04:02:11.427Z,96373.39
2019-01-27T04:04:40.063Z,96359.38
2019-01-27T04:07:08.786Z,96354.41
2019-01-27T04:09:37.715Z,96348.91
2019-01-27T04:12:06.434Z,96341.03
2019-01-27T04:14:36.154Z,96347.65
2019-01-27T04:17:04.844Z,96343.52
2019-01-27T04:19:33.557Z,96335.17
2019-01-27T04:22:02.277Z,96326.52
2019-01-27T04:24:30.998Z,96325.65
2019-01-27T04:26:59.652Z,96317.66
2019-01-27T04:29:28.316Z,96314.42
2019-01-27T04:31:56.972Z,96315.75
2019-01-27T04:34:26.292Z,96303.16
2019-01-27T04:36:54.982Z,96308.52
2019-01-27T04:39:23.650Z,96314.73
2019-01-27T04:41:52.305Z,96306.16
2019-01-27T04:44:20.956Z,96303.41
2019-01-27T04:46:49.615Z,96305.92
2019-01-27T04:49:18.321Z,96306.72
2019-01-27T04:51:46.957Z,96311.35
2019-01-27T04:54:15.615Z,96311.91
2019-01-27T04:56:44.263Z,96293.02
2019-01-27T04:59:12.911Z,96290.42
2019-01-27T05:01:41.706Z,96280.16
2019-01-27T05:04:21.355Z,96278.50
2019-01-27T05:06:50.286Z,96275.90
2019-01-27T05:09:19.074Z,96271.25
2019-01-27T05:11:47.813Z,96268.10
2019-01-27T05:14:16.490Z,96270.06
2019-01-27T05:16:45.140Z,96271.80
2019-01-27T05:19:13.766Z,96266.59
2019-01-27T05:21:42.424Z,96255.58
2019-01-27T05:24:11.322Z,96262.28
2019-01-27T05:26:40.052Z,96256.07
2019-01-27T05:29:08.709Z,96253.27
2019-01-27T05:31:37.436Z,96249.41
2019-01-27T05:34:06.087Z,96241.74
2019-01-27T05:36:34.747Z,96246.47
2019-01-27T05:39:05.685Z,96244.42
2019-01-27T05:41:34.329Z,96243.87
2019-01-27T05:44:03.308Z,96240.02
2019-01-27T05:46:31.982Z,96236.16
2019-01-27T05:49:00.692Z,96231.36
2019-01-27T05:51:29.351Z,96231.84
2019-01-27T05:53:58.006Z,96222.23
2019-01-27T05:56:26.660Z,96224.36
2019-01-27T05:58:55.307Z,96229.16
2019-01-27T06:01:24.719Z,96227.03
2019-01-27T06:03:53.395Z,96228.05
2019-01-27T06:06:22.074Z,96221.79
2019-01-27T06:08:50.719Z,96221.70
2019-01-27T06:11:19.362Z,96222.80
2019-01-27T06:13:48.080Z,96208.47
2019-01-27T06:16:16.721Z,96213.98
2019-01-27T06:18:45.383Z,96209.66
2019-01-27T06:21:14.019Z,96201.01
2019-01-27T06:23:42.665Z,96188.98
2019-01-27T06:26:11.324Z,96191.01
2019-01-27T06:28:39.990Z,96192.51
2019-01-27T06:31:08.640Z,96188.58
2019-01-27T06:34:05.306Z,96197.07
2019-01-27T06:36:33.943Z,96191.64
2019-01-27T06:39:02.600Z,96179.20
2019-01-27T06:41:32.428Z,96165.20
2019-01-27T06:44:01.079Z,96167.02
2019-01-27T06:46:30.686Z,96161.58
2019-01-27T06:48:59.339Z,96158.05
2019-01-27T06:51:27.991Z,96157.98
2019-01-27T06:53:56.710Z,96154.38
2019-01-27T06:56:25.375Z,96145.64
2019-01-27T06:59:12.039Z,96140.06
2019-01-27T07:01:48.582Z,96135.90
2019-01-27T07:04:25.991Z,96130.70
2019-01-27T07:07:25.961Z,96126.86
2019-01-27T07:10:03.051Z,96127.30
2019-01-27T07:12:39.683Z,96131.86
2019-01-27T07:15:44.347Z,96134.78
2019-01-27T07:18:22.427Z,96125.58
2019-01-27T07:21:00.111Z,96115.61
2019-01-27T07:23:45.021Z,96118.12
2019-01-27T07:26:32.184Z,96124.88
2019-01-27T07:29:38.294Z,96119.74
2019-01-27T07:32:15.286Z,96120.14
2019-01-27T07:35:03.964Z,96126.19
2019-01-27T07:37:45.464Z,96124.04
2019-01-27T07:40:31.975Z,96114.33
2019-01-27T07:43:19.688Z,96112.44
2019-01-27T07:45:57.300Z,96108.30
2019-01-27T07:48:33.768Z,96099.58
2019-01-27T07:51:09.826Z,96099.29
2019-01-27T07:54:00.554Z,96101.41
2019-01-27T07:56:54.185Z,96090.42
2019-01-27T07:59:30.966Z,96086.90
2019-01-27T08:02:17.629Z,96088.83
2019-01-27T08:04:58.755Z,96083.45
2019-01-27T08:07:46.811Z,96071.81
2019-01-27T08:10:31.187Z,96069.62
2019-01-27T08:13:37.353Z,96064.59
2019-01-27T08:16:25.076Z,96069.33
2019-01-27T08:19:12.879Z,96061.88
2019-01-27T08:21:59.311Z,96053.16
2019-01-27T08:24:49.799Z,96050.22
2019-01-27T08:27:30.436Z,96050.28
2019-01-27T08:30:17.155Z,96051.09
2019-01-27T08:33:07.659Z,96053.52
2019-01-27T08:36:04.379Z,96052.86
2019-01-27T08:38:45.055Z,96051.91
2019-01-27T08:41:26.039Z,96057.56
2019-01-27T08:44:16.798Z,96047.05
2019-01-27T08:46:49.830Z,96041.04
2019-01-27T08:49:18.526Z,96046.16
2019-01-27T08:51:47.266Z,96040.40
2019-01-27T08:54:15.924Z,96034.78
2019-01-27T08:56:44.564Z,96032.17
2019-01-27T08:59:13.272Z,96024.20
2019-01-27T09:02:13.142Z,96023.99
2019-01-27T09:04:54.981Z,96023.42
2019-01-27T09:07:41.338Z,96022.10
2019-01-27T09:10:31.646Z,96014.19
2019-01-27T09:13:21.883Z,96020.04
2019-01-27T09:16:03.936Z,96011.75
2019-01-27T09:19:04.114Z,96005.45
2019-01-27T09:21:54.765Z,96002.06
2019-01-27T09:24:46.291Z,95989.25
2019-01-27T09:27:22.047Z,95985.78
2019-01-27T09:29:55.659Z,95987.64
2019-01-27T09:32:33.543Z,95985.02
2019-01-27T09:35:28.706Z,95974.74
2019-01-27T09:38:14.751Z,95969.77
2019-01-27T09:40:54.498Z,95970.33
2019-01-27T09:43:41.110Z,95978.91
2019-01-27T09:46:34.694Z,95978.70
2019-01-27T09:49:25.430Z,95974.65
2019-01-27T09:52:01.119Z,95983.95
2019-01-27T09:54:58.175Z,95985.05
2019-01-27T09:57:55.256Z,95980.45
2019-01-27T10:00:32.998Z,95977.08
2019-01-27T10:03:10.418Z,95971.61
2019-01-27T10:05:51.584Z,95968.86
2019-01-27T10:08:27.654Z,95965.15
2019-01-27T10:11:08.402Z,95956.45
2019-01-27T10:13:56.136Z,95958.92
2019-01-27T10:16:33.160Z,95960.89
2019-01-27T10:19:30.187Z,95968.00
2019-01-27T10:22:08.692Z,95963.59
2019-01-27T10:24:48.155Z,95970.00
2019-01-27T10:27:24.901Z,95956.77
2019-01-27T10:30:21.487Z,95950.83
2019-01-27T10:32:56.167Z,95954.66
2019-01-27T10:35:50.983Z,95951.52
2019-01-27T10:38:45.503Z,95954.11
2019-01-27T10:41:33.331Z,95952.80
2019-01-27T10:44:15.706Z,95956.85
2019-01-27T10:47:06.385Z,95945.22
2019-01-27T10:50:06.342Z,95944.23
2019-01-27T10:53:00.722Z,95938.78
2019-01-27T10:55:53.254Z,95934.42
2019-01-27T10:58:44.131Z,95943.22
2019-01-27T11:01:47.682Z,95929.81
2019-01-27T11:04:29.704Z,95922.15
2019-01-27T11:07:09.086Z,95917.67
2019-01-27T11:09:59.898Z,95914.05
2019-01-27T11:12:38.832Z,95911.49
2019-01-27T11:15:26.244Z,95908.02
2019-01-27T11:18:02.862Z,95905.25
2019-01-27T11:20:49.816Z,95891.63
2019-01-27T11:23:40.558Z,95880.48
2019-01-27T11:26:31.211Z,95867.40
2019-01-27T11:29:31.182Z,95869.41
2019-01-27T11:32:17.959Z,95842.30
2019-01-27T11:35:16.225Z,95846.14
2019-01-27T11:37:59.903Z,95819.89
2019-01-27T11:40:56.907Z,95808.89
2019-01-27T11:43:44.706Z,95810.09
2019-01-27T11:46:19.191Z,95806.56
2019-01-27T11:49:07.026Z,95797.95
2019-01-27T11:52:01.646Z,95800.64
2019-01-27T11:54:30.331Z,95803.08
2019-01-27T11:56:59.054Z,95798.98
2019-01-27T11:59:28.080Z,95798.61
2019-01-27T12:01:56.846Z,95806.02
2019-01-27T12:04:25.484Z,95797.86
2019-01-27T12:06:54.152Z,95804.62
2019-01-27T12:09:22.834Z,95803.39
2019-01-27T12:11:51.493Z,95795.45
2019-01-27T12:14:21.058Z,95799.53
2019-01-27T12:16:49.705Z,95784.79
2019-01-27T12:19:18.342Z,95785.00
2019-01-27T12:21:46.970Z,95783.85
2019-01-27T12:24:15.609Z,95783.12
2019-01-27T12:26:44.252Z,95774.84
2019-01-27T12:29:12.966Z,95781.15
2019-01-27T12:31:41.605Z,95773.33
2019-01-27T12:34:10.605Z,95770.45
2019-01-27T12:36:39.255Z,95770.02
2019-01-27T12:39:09.223Z,95764.10
2019-01-27T12:41:38.231Z,95766.83
2019-01-27T12:44:07.554Z,95755.17
2019-01-27T12:46:36.195Z,95749.78
2019-01-27T12:49:05.939Z,95750.17
2019-01-27T12:51:34.590Z,95740.23
2019-01-27T12:54:03.315Z,95724.60
2019-01-27T12:56:32.043Z,95712.45
2019-01-27T12:59:00.984Z,95717.07
2019-01-27T13:01:29.998Z,95717.77
2019-01-27T13:03:59.030Z,95730.09
2019-01-27T13:06:27.730Z,95725.29
2019-01-27T13:08:56.384Z,95731.19
2019-01-27T13:11:25.022Z,95723.18
2019-01-27T13:13:53.720Z,95699.38
2019-01-27T13:16:22.390Z,95698.02
2019-01-27T13:18:51.018Z,95688.78
2019-01-27T13:21:19.972Z,95663.55
2019-01-27T13:23:48.617Z,95666.63
2019-01-27T13:26:17.255Z,95678.75
2019-01-27T13:28:45.965Z,95686.37
2019-01-27T13:31:15.955Z,95683.52
2019-01-27T13:33:44.587Z,95674.86
2019-01-27T13:36:13.331Z,95671.53
2019-01-27T13:38:41.975Z,95663.03
2019-01-27T13:41:10.949Z,95661.00
2019-01-27T13:43:39.593Z,95661.02
2019-01-27T13:46:08.239Z,95661.91
2019-01-27T13:48:36.875Z,95662.95
2019-01-27T13:51:05.859Z,95664.61
2019-01-27T13:53:34.513Z,95661.87
2019-01-27T13:56:03.222Z,95664.17
2019-01-27T13:58:31.929Z,95667.89
2019-01-27T14:01:00.575Z,95660.78
2019-01-27T14:03:30.291Z,95660.11
2019-01-27T14:05:58.954Z,95657.88
2019-01-27T14:08:27.678Z,95654.93
2019-01-27T14:10:56.650Z,95657.01
2019-01-27T14:13:25.295Z,95657.02
2019-01-27T14:15:53.968Z,95664.84
2019-01-27T14:18:22.700Z,95658.28
2019-01-27T14:20:51.333Z,95655.61
2019-01-27T14:23:20.076Z,95652.05
2019-01-27T14:25:48.718Z,95654.53
2019-01-27T14:28:17.356Z,95655.73
2019-01-27T14:30:46.016Z,95652.81
2019-01-27T14:33:14.917Z,95651.45
2019-01-27T14:35:43.815Z,95646.95
2019-01-27T14:38:12.610Z,95648.91
2019-01-27T14:40:41.607Z,95651.19
2019-01-27T14:43:10.907Z,95654.36
2019-01-27T14:45:39.639Z,95636.12
2019-01-27T14:48:08.355Z,95632.13
2019-01-27T14:50:38.487Z,95648.52
2019-01-27T14:53:07.739Z,95653.97
2019-01-27T14:55:36.379Z,95655.11
2019-01-27T14:58:05.263Z,95666.66
2019-01-27T15:00:36.692Z,95661.36
2019-01-27T15:03:05.999Z,95656.41
2019-01-27T15:05:34.804Z,95647.22
2019-01-27T15:08:03.493Z,95644.93
2019-01-27T15:10:32.182Z,95649.76
2019-01-27T15:13:00.860Z,95647.00
2019-01-27T15:15:29.507Z,95642.67
2019-01-27T15:17:58.148Z,95647.77
2019-01-27T15:20:28.352Z,95635.16
2019-01-27T15:22:57.003Z,95626.65
2019-01-27T15:25:25.714Z,95634.03
2019-01-27T15:27:54.425Z,95624.61
2019-01-27T15:30:24.224Z,95629.60
2019-01-27T15:32:53.032Z,95633.13
2019-01-27T15:35:22.187Z,95635.81
2019-01-27T15:37:51.095Z,95628.48
2019-01-27T15:40:20.126Z,95631.00
2019-01-27T15:42:49.103Z,95623.84
2019-01-27T15:45:21.715Z,95618.73
2019-01-27T15:47:50.365Z,95619.13
2019-01-27T15:50:19.853Z,95612.90
2019-01-27T15:52:48.491Z,95607.39
2019-01-27T15:55:17.574Z,95606.66
2019-01-27T15:57:46.543Z,95598.73
2019-01-27T16:00:16.427Z,95597.89
2019-01-27T16:02:46.644Z,95604.09
2019-01-27T16:05:16.487Z,95605.91
2019-01-27T16:07:45.153Z,95610.23
2019-01-27T16:10:14.775Z,95607.25
2019-01-27T16:12:43.692Z,95612.66
2019-01-27T16:15:13.450Z,95621.06
2019-01-27T16:17:42.342Z,95628.91
2019-01-27T16:20:11.230Z,95631.89
2019-01-27T16:22:39.856Z,95624.52
2019-01-27T16:25:09.206Z,95632.59
2019-01-27T16:27:37.951Z,95634.88
2019-01-27T16:30:22.717Z,95634.14
2019-01-27T16:32:59.074Z,95630.12
2019-01-27T16:35:28.302Z,95627.30
2019-01-27T16:37:57.014Z,95623.19
2019-01-27T16:40:25.655Z,95626.63
2019-01-27T16:42:54.367Z,95625.97
2019-01-27T16:45:23.071Z,95622.06
2019-01-27T16:47:51.725Z,95619.27
2019-01-27T16:50:20.515Z,95622.34
2019-01-27T16:52:49.457Z,95625.28
2019-01-27T16:55:18.096Z,95632.64
2019-01-27T16:57:46.751Z,95628.59
2019-01-27T17:00:17.343Z,95633.23
2019-01-27T17:02:46.461Z,95627.78
2019-01-27T17:05:15.492Z,95628.91
2019-01-27T17:07:44.211Z,95624.35
2019-01-27T17:10:13.114Z,95636.79
2019-01-27T17:12:42.021Z,95621.16
2019-01-27T17:15:10.996Z,95610.74
2019-01-27T17:17:39.792Z,95606.98
2019-01-27T17:20:10.330Z,95613.09
2019-01-27T17:22:39.324Z,95607.39
2019-01-27T17:25:08.682Z,95601.53
2019-01-27T17:27:38.486Z,95603.13
2019-01-27T17:30:08.762Z,95605.91
2019-01-27T17:32:37.732Z,95605.61
2019-01-27T17:35:07.252Z,95597.81
2019-01-27T17:37:36.037Z,95596.80
2019-01-27T17:40:05.239Z,95597.05
2019-01-27T17:42:33.866Z,95596.73
2019-01-27T17:45:02.512Z,95598.11
2019-01-27T17:47:31.623Z,95604.13
2019-01-27T17:50:01.256Z,95602.72
2019-01-27T17:52:31.612Z,95605.64
2019-01-27T17:55:00.259Z,95610.00
2019-01-27T17:57:40.403Z,95611.83
2019-01-27T18:00:28.359Z,95612.13
2019-01-27T18:03:03.091Z,95603.30
2019-01-27T18:05:40.208Z,95607.10
2019-01-27T18:08:18.027Z,95612.70
2019-01-27T18:10:51.683Z,95601.42
2019-01-27T18:13:40.167Z,95593.81
2019-01-27T18:16:12.912Z,95582.23
2019-01-27T18:18:42.441Z,95587.84
2019-01-27T18:21:11.085Z,95584.26
2019-01-27T18:23:39.962Z,95591.09
2019-01-27T18:26:09.152Z,95587.97
2019-01-27T18:28:38.211Z,95586.63
2019-01-27T18:31:06.848Z,95588.41
2019-01-27T18:33:35.895Z,95586.85
2019-01-27T18:36:05.312Z,95582.38
2019-01-27T18:38:34.227Z,95575.72
2019-01-27T18:41:03.015Z,95577.64
2019-01-27T18:43:31.698Z,95583.31
2019-01-27T18:46:00.428Z,95593.38
2019-01-27T18:48:29.090Z,95596.47
2019-01-27T18:50:57.749Z,95597.32
2019-01-27T18:53:34.332Z,95594.22
2019-01-27T18:56:28.118Z,95588.87
2019-01-27T18:59:03.459Z,95585.87
2019-01-27T19:01:50.997Z,95587.73
2019-01-27T19:04:37.935Z,95583.94
2019-01-27T19:07:24.610Z,95588.52
2019-01-27T19:10:18.487Z,95591.75
2019-01-27T19:13:01.059Z,95587.30
2019-01-27T19:16:01.033Z,95587.18
2019-01-27T19:18:51.647Z,95584.58
2019-01-27T19:21:39.347Z,95587.31
2019-01-27T19:24:17.336Z,95576.14
2019-01-27T19:27:03.898Z,95583.82
2019-01-27T19:29:57.910Z,95577.89
2019-01-27T19:32:45.646Z,95573.31
2019-01-27T19:35:39.225Z,95577.55
2019-01-27T19:38:36.274Z,95587.28
2019-01-27T19:41:22.442Z,95587.72
2019-01-27T19:44:16.182Z,95588.78
2019-01-27T19:47:03.896Z,95578.41
2019-01-27T19:49:49.394Z,95585.48
2019-01-27T19:52:26.252Z,95583.79
2019-01-27T19:55:17.851Z,95580.55
2019-01-27T19:58:01.420Z,95576.52
2019-01-27T20:00:48.069Z,95579.75
2019-01-27T20:03:35.859Z,95582.32
2019-01-27T20:06:24.429Z,95583.65
2019-01-27T20:09:01.707Z,95585.73
2019-01-27T20:11:54.035Z,95597.33
2019-01-27T20:14:31.495Z,95592.94
2019-01-27T20:17:10.057Z,95595.33
2019-01-27T20:20:03.989Z,95589.45
2019-01-27T20:22:58.026Z,95595.39
2019-01-27T20:25:48.652Z,95598.84
2019-01-27T20:28:42.498Z,95598.16
2019-01-27T20:31:39.452Z,95602.27
2019-01-27T20:34:19.200Z,95593.48
2019-01-27T20:37:10.016Z,95601.88
2019-01-27T20:39:44.264Z,95598.47
2019-01-27T20:42:41.244Z,95609.86
2019-01-27T20:45:30.035Z,95611.39
2019-01-27T20:48:09.540Z,95617.80
2019-01-27T20:51:15.502Z,95608.97
2019-01-27T20:54:03.435Z,95587.58
2019-01-27T20:56:41.623Z,95581.48
2019-01-27T20:59:29.395Z,95571.17
2019-01-27T21:02:08.311Z,95583.90
2019-01-27T21:04:56.461Z,95575.41
2019-01-27T21:07:49.123Z,95573.50
2019-01-27T21:10:37.746Z,95567.22
2019-01-27T21:13:22.644Z,95573.72
2019-01-27T21:16:22.673Z,95565.45
2019-01-27T21:18:56.362Z,95561.61
2019-01-27T21:21:25.015Z,95566.08
2019-01-27T21:23:53.755Z,95565.03
2019-01-27T21:26:22.406Z,95561.91
2019-01-27T21:28:51.127Z,95566.85
2019-01-27T21:31:20.090Z,95568.70
2019-01-27T21:33:48.739Z,95564.81
2019-01-27T21:36:17.502Z,95572.52
2019-01-27T21:38:46.130Z,95570.31
2019-01-27T21:41:14.804Z,95585.36
2019-01-27T21:43:43.569Z,95580.04
2019-01-27T21:46:12.316Z,95592.13
2019-01-27T21:48:40.976Z,95596.73
2019-01-27T21:51:09.613Z,95600.70
2019-01-27T21:53:38.292Z,95609.11
2019-01-27T21:56:07.040Z,95604.30
2019-01-27T21:58:35.694Z,95604.36
2019-01-27T22:01:04.812Z,95616.55
2019-01-27T22:03:33.636Z,95623.86
2019-01-27T22:06:02.278Z,95629.83
2019-01-27T22:08:31.019Z,95649.27
2019-01-27T22:10:59.667Z,95658.11
2019-01-27T22:13:28.319Z,95648.85
2019-01-27T22:15:56.961Z,95636.08
2019-01-27T22:18:25.627Z,95631.62
2019-01-27T22:20:54.306Z,95621.83
2019-01-27T22:23:22.962Z,95621.37
2019-01-27T22:25:51.611Z,95623.17
2019-01-27T22:28:21.319Z,95624.88
2019-01-27T22:30:49.993Z,95627.09
2019-01-27T22:33:18.719Z,95622.67
2019-01-27T22:35:47.353Z,95630.51
2019-01-27T22:38:16.064Z,95630.89
2019-01-27T22:40:45.885Z,95631.24
2019-01-27T22:43:14.596Z,95628.82
2019-01-27T22:45:43.244Z,95631.62
2019-01-27T22:48:11.887Z,95635.77
2019-01-27T22:50:40.522Z,95631.33
2019-01-27T22:53:09.251Z,95628.56
2019-01-27T22:55:37.985Z,95642.81
2019-01-27T22:58:06.618Z,95640.21
2019-01-27T23:00:54.430Z,95632.84
2019-01-27T23:03:24.116Z,95631.94
2019-01-27T23:05:52.802Z,95635.27
2019-01-27T23:08:21.530Z,95632.52
2019-01-27T23:10:50.226Z,95630.56
2019-01-27T23:13:18.877Z,95627.63
2019-01-27T23:15:47.644Z,95621.64
2019-01-27T23:18:16.373Z,95617.55
2019-01-27T23:20:45.098Z,95619.05
2019-01-27T23:23:13.751Z,95618.86
2019-01-27T23:25:43.369Z,95622.78
2019-01-27T23:28:12.175Z,95617.13
2019-01-27T23:30:40.911Z,95622.80
2019-01-27T23:33:09.551Z,95627.39
2019-01-27T23:35:38.267Z,95626.48
2019-01-27T23:38:06.991Z,95637.72
2019-01-27T23:40:35.707Z,95641.77
2019-01-27T23:43:04.358Z,95644.65
2019-01-27T23:45:33.027Z,95640.13
2019-01-27T23:48:01.662Z,95647.48
2019-01-27T23:50:30.478Z,95645.30
2019-01-27T23:52:59.146Z,95648.69
2019-01-27T23:55:27.778Z,95644.58
2019-01-27T23:57:56.419Z,95642.59
